• Join FlightAware (Why Join?)
  • Login
  • US Flag 
07:59AM EDT


 

Airport Tracker/Info


-or-


 

Live Flight TrackerFlight Track Log ✈ CPZ5843 ✈ 03-May-2013 ✈ KFAR - KMSP

Flight Track Log - Related Links

Times and Time Zones

All times are in EDT time to prevent confusion due to time zone crossing. See the CPZ5843 flight status page for this flight to view local times or setup timezone preferences in your user account.

Time Position Orientation Groundspeed Altitude Reporting Facility
EDT Latitude Longitude Course Direction KTS MPH feet Rate Location/Type
12:27PM 46.9444 -96.7956 121° Southeast 152 175 2,500  Level Minneapolis Center
12:28PM 46.8958 -96.7417 143° Southeast 212 244 4,300 1,980 Climbing Minneapolis Center
12:29PM 46.7114 -96.4247 120° Southeast  Level Estimated
12:29PM 46.8317 -96.6836 148° Southeast 255 293 6,700  Level Minneapolis Center
12:30PM 46.6588 -96.3274 124° Southeast  Level Estimated
12:30PM 46.7686 -96.6250 148° Southeast 275 316 9,200  Level Minneapolis Center
12:31PM 46.6367 -96.2079 105° East  Level FlightAware Approximate
12:31PM 46.6972 -96.5572 147° Southeast 290 334 11,000  Level Minneapolis Center
12:32PM 46.5832 -96.1119 121° Southeast  Level Estimated
12:32PM 46.6342 -96.4553 132° Southeast 320 368 12,900  Level Minneapolis Center
12:33PM 46.5944 -96.3231 114° Southeast 337 388 15,100 1,980 Climbing Minneapolis Center
12:34PM 46.5533 -96.1911 114° Southeast 344 396 17,000 1,380 Climbing Minneapolis Center
12:35PM 46.5144 -96.0661 114° Southeast 352 405 18,000 720 Climbing Minneapolis Center
12:36PM 46.4692 -95.9469 119° Southeast 366 421 18,600 660 Climbing Minneapolis Center
12:37PM 46.4058 -95.7797 119° Southeast 395 455 19,400 1,020 Climbing Minneapolis Center
12:38PM 46.3506 -95.6344 119° Southeast 409 471 20,700 1,020 Climbing Minneapolis Center
12:39PM 46.2950 -95.4919 119° Southeast 409 471 21,600 720 Climbing Minneapolis Center
12:40PM 46.2431 -95.3539 119° Southeast 409 471 22,300 720 Climbing Minneapolis Center
12:41PM 46.1833 -95.1992 119° Southeast 420 483 23,100 780 Climbing Minneapolis Center
12:42PM 46.1219 -95.0461 120° Southeast 424 488 23,900 720 Climbing Minneapolis Center
12:43PM 46.0650 -94.8972 119° Southeast 426 490 24,600 480 Climbing Minneapolis Center
12:44PM 46.0075 -94.7508 119° Southeast 424 488 25,000 180 Climbing Minneapolis Center
12:45PM 45.9494 -94.6044 120° Southeast 422 486 25,000  Level Minneapolis Center
12:46PM 45.8792 -94.4297 120° Southeast 423 487 25,000  Level Minneapolis Center
12:47PM 45.8211 -94.2844 120° Southeast 422 486 25,000  Level Minneapolis Center
12:48PM 45.7631 -94.1411 120° Southeast 419 482 25,000  Level Minneapolis Center
12:49PM 45.7039 -93.9950 120° Southeast 424 488 25,000 -120 Level Minneapolis Center
12:50PM 45.6447 -93.8508 120° Southeast 423 487 24,800 -1,320 Descending Minneapolis Center
12:51PM 45.5894 -93.7114 119° Southeast 409 471 22,400 -2,400 Descending Minneapolis Center
12:52PM 45.5292 -93.5894 125° Southeast 385 443 20,000 -2,340 Descending Minneapolis Center
12:53PM 45.4197 -93.5192 156° South 358 412 17,600 -2,400 Descending Minneapolis Center
12:54PM 45.3297 -93.4703 159° South 347 399 15,100 -2,220 Descending Minneapolis Center
12:55PM 45.2431 -93.4247 160° South 335 386 13,100 -1,980 Descending Minneapolis Center
12:56PM 45.1575 -93.3789 159° South 331 381 11,100 -1,500 Descending Minneapolis Center
12:57PM 45.0811 -93.3372 159° South 296 341 10,100 -1,200 Descending Minneapolis Center
12:58PM 45.0200 -93.2903 151° Southeast 260 299 8,700 -1,080 Descending Minneapolis Center
01:00PM 44.9950 -93.2000 111° Southeast 243 280 8,000 -540 Descending Minneapolis Center
01:01PM 44.9694 -93.1050 111° Southeast 217 250 7,600 -840 Descending Minneapolis Center
01:02PM 44.9436 -93.0294 116° Southeast 213 245 6,300 -1,380 Descending Minneapolis Center
01:03PM 44.9067 -92.9614 127° Southeast 217 250 4,800 -1,140 Descending Minneapolis Center
01:04PM 44.8708 -92.8978 128° Southeast 209 241 4,000 -420 Descending Minneapolis Center
01:05PM 44.8339 -92.8342 129° Southeast 209 241 4,000  Level Minneapolis Center
01:06PM 44.7942 -92.7781 135° Southeast 205 236 4,000  Level Minneapolis Center
01:07PM 44.7583 -92.8400 231° Southwest 230 265 4,000 -300 Level Minneapolis Center
01:08PM 44.7642 -92.9222 276° West 210 242 3,500 -540 Descending Minneapolis Center
01:09PM 44.7928 -92.9897 301° West 167 192 3,000 -300 Descending Minneapolis Center
01:10PM 44.8158 -93.0436 301° West 163 188 3,000  Level Minneapolis Center